createdAt,value
2019-02-23T00:01:28.900Z,99.90
2019-02-23T00:03:58.943Z,99.90
2019-02-23T00:06:30.124Z,99.90
2019-02-23T00:08:59.204Z,99.90
2019-02-23T00:11:28.635Z,99.90
2019-02-23T00:13:58.060Z,99.90
2019-02-23T00:16:27.462Z,99.90
2019-02-23T00:18:57.199Z,99.90
2019-02-23T00:21:27.186Z,99.90
2019-02-23T00:23:56.608Z,99.90
2019-02-23T00:26:26.402Z,99.90
2019-02-23T00:28:56.435Z,99.90
2019-02-23T00:31:25.576Z,99.90
2019-02-23T00:33:55.011Z,99.90
2019-02-23T00:36:24.420Z,99.90
2019-02-23T00:38:53.852Z,99.90
2019-02-23T00:41:23.552Z,99.90
2019-02-23T00:43:52.685Z,99.90
2019-02-23T00:46:22.175Z,99.90
2019-02-23T00:48:51.575Z,99.90
2019-02-23T00:51:20.731Z,99.90
2019-02-23T00:53:50.175Z,99.90
2019-02-23T00:56:19.599Z,99.90
2019-02-23T00:58:48.984Z,99.90
2019-02-23T01:01:18.149Z,99.90
2019-02-23T01:03:47.807Z,99.90
2019-02-23T01:06:17.231Z,99.90
2019-02-23T01:08:46.625Z,99.90
2019-02-23T01:11:16.038Z,99.90
2019-02-23T01:13:45.725Z,99.90
2019-02-23T01:16:15.268Z,99.90
2019-02-23T01:18:44.695Z,99.90
2019-02-23T01:21:14.404Z,99.90
2019-02-23T01:23:43.804Z,99.90
2019-02-23T01:26:13.507Z,99.90
2019-02-23T01:28:43.192Z,99.90
2019-02-23T01:31:12.584Z,99.90
2019-02-23T01:33:42.471Z,99.90
2019-02-23T01:36:11.864Z,99.90
2019-02-23T01:38:41.691Z,99.90
2019-02-23T01:41:10.891Z,99.90
2019-02-23T01:43:40.601Z,99.90
2019-02-23T01:46:09.786Z,99.90
2019-02-23T01:48:39.504Z,99.90
2019-02-23T01:51:08.943Z,99.90
2019-02-23T01:53:38.327Z,99.90
2019-02-23T01:56:07.498Z,99.90
2019-02-23T01:58:37.240Z,99.90
2019-02-23T02:01:06.920Z,99.90
2019-02-23T02:03:36.087Z,99.90
2019-02-23T02:06:05.880Z,99.90
2019-02-23T02:08:36.081Z,99.90
2019-02-23T02:11:05.315Z,99.90
2019-02-23T02:13:34.541Z,99.90
2019-02-23T02:16:04.063Z,99.90
2019-02-23T02:18:33.544Z,99.90
2019-02-23T02:21:03.229Z,99.90
2019-02-23T02:23:33.012Z,99.90
2019-02-23T02:26:02.400Z,99.90
2019-02-23T02:28:31.835Z,99.90
2019-02-23T02:31:01.024Z,99.90
2019-02-23T02:33:30.448Z,99.90
2019-02-23T02:36:00.104Z,99.90
2019-02-23T02:38:29.535Z,99.90
2019-02-23T02:40:59.079Z,99.90
2019-02-23T02:43:28.238Z,99.90
2019-02-23T02:45:57.655Z,99.90
2019-02-23T02:48:27.897Z,99.90
2019-02-23T02:50:57.663Z,99.90
2019-02-23T02:53:27.163Z,99.90
2019-02-23T02:55:56.567Z,99.90
2019-02-23T02:58:26.052Z,99.90
2019-02-23T03:00:55.200Z,99.90
2019-02-23T03:03:24.431Z,99.90
2019-02-23T03:05:53.828Z,99.90
2019-02-23T03:08:23.014Z,99.90
2019-02-23T03:10:52.485Z,99.90
2019-02-23T03:13:22.728Z,99.90
2019-02-23T03:15:52.135Z,99.90
2019-02-23T03:18:21.576Z,99.90
2019-02-23T03:20:50.975Z,99.90
2019-02-23T03:23:20.779Z,99.90
2019-02-23T03:25:50.192Z,99.90
2019-02-23T03:28:19.727Z,99.90
2019-02-23T03:30:49.128Z,99.90
2019-02-23T03:33:19.196Z,99.90
2019-02-23T03:35:48.343Z,99.90
2019-02-23T03:38:18.071Z,99.90
2019-02-23T03:40:47.739Z,99.90
2019-02-23T03:43:17.013Z,99.90
2019-02-23T03:45:46.150Z,99.90
2019-02-23T03:48:15.321Z,99.90
2019-02-23T03:50:49.199Z,99.90
2019-02-23T03:53:15.936Z,99.90
2019-02-23T03:55:45.336Z,99.90
2019-02-23T03:58:14.536Z,99.90
2019-02-23T04:00:43.742Z,99.90
2019-02-23T04:03:13.713Z,99.90
2019-02-23T04:05:42.843Z,99.90
2019-02-23T04:08:12.275Z,99.90
2019-02-23T04:10:41.943Z,99.90
2019-02-23T04:13:11.116Z,99.90
2019-02-23T04:15:40.895Z,99.90
2019-02-23T04:18:10.626Z,99.90
2019-02-23T04:20:39.827Z,99.90
2019-02-23T04:23:09.263Z,99.90
2019-02-23T04:25:38.400Z,99.90
2019-02-23T04:28:08.102Z,99.90
2019-02-23T04:30:37.574Z,99.90
2019-02-23T04:33:07.295Z,99.90
2019-02-23T04:35:36.705Z,99.90
2019-02-23T04:38:05.862Z,99.90
2019-02-23T04:40:35.003Z,99.90
2019-02-23T04:43:04.400Z,99.90
2019-02-23T04:45:33.568Z,99.90
2019-02-23T04:48:03.317Z,99.90
2019-02-23T04:50:32.444Z,99.90
2019-02-23T04:53:01.905Z,99.90
2019-02-23T04:55:31.043Z,99.90
2019-02-23T04:58:00.496Z,99.90
2019-02-23T05:00:30.502Z,99.90
2019-02-23T05:02:59.937Z,99.90
2019-02-23T05:05:29.146Z,99.90
2019-02-23T05:07:58.602Z,99.90
2019-02-23T05:10:28.794Z,99.90
2019-02-23T05:12:58.235Z,99.90
2019-02-23T05:15:27.467Z,99.90
2019-02-23T05:17:58.849Z,99.90
2019-02-23T05:20:28.108Z,99.90
2019-02-23T05:22:59.166Z,99.90
2019-02-23T05:25:28.408Z,99.90
2019-02-23T05:27:57.928Z,99.90
2019-02-23T05:30:27.609Z,99.90
2019-02-23T05:32:57.132Z,99.90
2019-02-23T05:35:26.850Z,99.90
2019-02-23T05:37:56.859Z,99.90
2019-02-23T05:40:26.612Z,99.90
2019-02-23T05:43:01.212Z,99.90
2019-02-23T05:45:28.802Z,99.90
2019-02-23T05:47:58.079Z,99.90
2019-02-23T05:50:27.865Z,99.90
2019-02-23T05:52:57.329Z,99.90
2019-02-23T05:55:28.224Z,99.90
2019-02-23T05:57:58.048Z,99.90
2019-02-23T06:00:27.572Z,99.90
2019-02-23T06:02:57.068Z,99.90
2019-02-23T06:05:26.504Z,99.90
2019-02-23T06:07:59.865Z,99.90
2019-02-23T06:10:29.267Z,99.90
2019-02-23T06:12:58.663Z,99.90
2019-02-23T06:15:28.112Z,99.90
2019-02-23T06:17:57.255Z,99.90
2019-02-23T06:20:26.575Z,99.90
2019-02-23T06:22:56.004Z,99.90
2019-02-23T06:25:26.010Z,99.90
2019-02-23T06:27:56.016Z,99.90
2019-02-23T06:30:26.669Z,99.90
2019-02-23T06:32:56.162Z,99.90
2019-02-23T06:35:25.670Z,99.90
2019-02-23T06:37:54.816Z,99.90
2019-02-23T06:40:24.529Z,99.90
2019-02-23T06:42:53.678Z,99.90
2019-02-23T06:45:22.914Z,99.90
2019-02-23T06:47:52.587Z,99.90
2019-02-23T06:50:22.055Z,99.90
2019-02-23T06:52:51.451Z,99.90
2019-02-23T06:55:21.027Z,99.90
2019-02-23T06:57:50.695Z,99.90
2019-02-23T07:00:20.206Z,99.90
2019-02-23T07:02:49.677Z,99.90
2019-02-23T07:05:18.857Z,99.90
2019-02-23T07:07:48.332Z,99.90
2019-02-23T07:10:18.126Z,99.90
2019-02-23T07:12:47.264Z,99.90
2019-02-23T07:15:16.704Z,99.90
2019-02-23T07:17:45.833Z,99.90
2019-02-23T07:20:15.023Z,99.90
2019-02-23T07:22:45.148Z,99.90
2019-02-23T07:25:14.585Z,99.90
2019-02-23T07:27:43.791Z,99.90
2019-02-23T07:30:13.763Z,99.90
2019-02-23T07:32:42.891Z,99.90
2019-02-23T07:35:12.402Z,99.90
2019-02-23T07:37:41.943Z,99.90
2019-02-23T07:40:11.523Z,99.90
2019-02-23T07:42:40.979Z,99.90
2019-02-23T07:45:10.158Z,99.90
2019-02-23T07:47:40.148Z,99.90
2019-02-23T07:50:09.597Z,99.90
2019-02-23T07:52:38.998Z,99.90
2019-02-23T07:55:08.177Z,99.90
2019-02-23T07:57:37.635Z,99.90
2019-02-23T08:00:07.991Z,99.90
2019-02-23T08:02:37.391Z,99.90
2019-02-23T08:05:07.042Z,99.90
2019-02-23T08:07:39.887Z,99.90
2019-02-23T08:10:09.838Z,99.90
2019-02-23T08:12:39.043Z,99.90
2019-02-23T08:15:08.571Z,99.90
2019-02-23T08:17:37.723Z,99.90
2019-02-23T08:20:07.115Z,99.90
2019-02-23T08:22:37.540Z,99.90
2019-02-23T08:25:07.595Z,99.90
2019-02-23T08:27:37.032Z,99.90
2019-02-23T08:30:07.905Z,99.90
2019-02-23T08:32:37.031Z,99.90
2019-02-23T08:35:06.954Z,99.90
2019-02-23T08:37:36.074Z,99.90
2019-02-23T08:40:05.619Z,99.90
2019-02-23T08:42:34.764Z,99.90
2019-02-23T08:45:04.007Z,99.90
2019-02-23T08:47:33.414Z,99.90
2019-02-23T08:50:02.583Z,99.90
2019-02-23T08:52:32.003Z,99.90
2019-02-23T08:55:01.552Z,99.90
2019-02-23T08:57:36.169Z,99.90
2019-02-23T09:00:06.803Z,99.90
2019-02-23T09:02:36.003Z,99.90
2019-02-23T09:05:05.856Z,99.90
2019-02-23T09:07:35.276Z,99.90
2019-02-23T09:10:04.763Z,99.90
2019-02-23T09:12:34.175Z,99.90
2019-02-23T09:15:03.655Z,99.90
2019-02-23T09:17:33.094Z,99.90
2019-02-23T09:20:02.344Z,99.90
2019-02-23T09:22:31.526Z,99.90
2019-02-23T09:25:01.139Z,99.90
2019-02-23T09:27:30.832Z,99.90
2019-02-23T09:30:00.515Z,99.90
2019-02-23T09:32:33.886Z,99.90
2019-02-23T09:35:03.097Z,99.90
2019-02-23T09:37:32.273Z,99.90
2019-02-23T09:40:01.663Z,99.90
2019-02-23T09:42:31.370Z,99.90
2019-02-23T09:45:01.034Z,99.90
2019-02-23T09:47:30.198Z,99.90
2019-02-23T09:49:59.608Z,99.90
2019-02-23T09:52:29.100Z,99.90
2019-02-23T09:54:58.237Z,99.90
2019-02-23T09:57:27.679Z,99.90
2019-02-23T09:59:57.100Z,99.90
2019-02-23T10:02:26.531Z,99.90
2019-02-23T10:04:56.203Z,99.90
2019-02-23T10:07:25.704Z,99.90
2019-02-23T10:09:54.044Z,99.90
2019-02-23T10:12:23.487Z,99.90
2019-02-23T10:14:52.628Z,99.90
2019-02-23T10:17:21.875Z,99.90
2019-02-23T10:19:51.277Z,97.00
2019-02-23T10:22:20.430Z,93.30
2019-02-23T10:24:49.568Z,94.80
2019-02-23T10:27:19.003Z,92.20
2019-02-23T10:29:49.125Z,92.20
2019-02-23T10:32:18.839Z,86.80
2019-02-23T10:34:48.571Z,92.90
2019-02-23T10:37:17.998Z,83.60
2019-02-23T10:39:47.940Z,72.50
2019-02-23T10:42:17.115Z,69.20
2019-02-23T10:44:46.338Z,66.50
2019-02-23T10:47:15.835Z,65.60
2019-02-23T10:49:44.972Z,62.80
2019-02-23T10:52:14.224Z,63.40
2019-02-23T10:54:43.637Z,63.00
2019-02-23T10:57:13.476Z,59.60
2019-02-23T10:59:42.644Z,59.90
2019-02-23T11:02:12.615Z,58.30
2019-02-23T11:04:41.755Z,56.00
2019-02-23T11:07:12.667Z,55.60
2019-02-23T11:09:41.874Z,53.00
2019-02-23T11:12:11.128Z,53.70
2019-02-23T11:14:40.300Z,51.90
2019-02-23T11:17:09.469Z,53.00
2019-02-23T11:19:40.607Z,52.80
2019-02-23T11:22:09.875Z,51.20
2019-02-23T11:24:39.280Z,50.50
2019-02-23T11:27:08.658Z,51.00
2019-02-23T11:29:38.104Z,52.00
2019-02-23T11:32:07.903Z,50.40
2019-02-23T11:34:37.660Z,49.80
2019-02-23T11:37:07.159Z,50.60
2019-02-23T11:39:36.631Z,49.10
2019-02-23T11:42:06.245Z,50.50
2019-02-23T11:44:35.828Z,51.10
2019-02-23T11:47:05.123Z,50.50
2019-02-23T11:49:34.426Z,47.70
2019-02-23T11:52:03.959Z,47.60
2019-02-23T11:54:33.360Z,46.10
2019-02-23T11:57:03.115Z,46.90
2019-02-23T11:59:32.323Z,44.80
2019-02-23T12:02:01.548Z,45.10
2019-02-23T12:04:30.947Z,44.50
2019-02-23T12:07:00.359Z,43.90
2019-02-23T12:09:29.954Z,42.50
2019-02-23T12:11:59.092Z,41.60
2019-02-23T12:14:28.897Z,41.80
2019-02-23T12:16:58.110Z,40.90
2019-02-23T12:19:27.398Z,40.50
2019-02-23T12:21:57.159Z,41.00
2019-02-23T12:24:26.648Z,40.50
2019-02-23T12:26:55.791Z,40.80
2019-02-23T12:29:25.604Z,38.90
2019-02-23T12:31:55.300Z,39.00
2019-02-23T12:34:24.847Z,37.80
2019-02-23T12:36:54.523Z,37.70
2019-02-23T12:39:24.005Z,38.70
2019-02-23T12:41:53.679Z,39.00
2019-02-23T12:44:22.872Z,38.60
2019-02-23T12:46:52.026Z,37.30
2019-02-23T12:49:21.217Z,37.00
2019-02-23T12:51:50.343Z,36.00
2019-02-23T12:54:19.526Z,35.30
2019-02-23T12:56:52.435Z,34.20
2019-02-23T12:59:22.344Z,35.40
2019-02-23T13:01:51.578Z,35.80
2019-02-23T13:04:21.452Z,35.40
2019-02-23T13:06:50.586Z,35.90
2019-02-23T13:09:33.886Z,36.30
2019-02-23T13:12:36.255Z,35.60
2019-02-23T13:15:12.699Z,35.90
2019-02-23T13:18:03.753Z,34.70
2019-02-23T13:21:07.659Z,34.20
2019-02-23T13:23:53.594Z,33.50
2019-02-23T13:26:53.239Z,34.00
2019-02-23T13:30:02.863Z,33.20
2019-02-23T13:33:03.876Z,34.30
2019-02-23T13:35:59.859Z,34.80
2019-02-23T13:38:56.867Z,32.90
2019-02-23T13:41:48.899Z,32.70
2019-02-23T13:44:45.439Z,32.70
2019-02-23T13:48:03.232Z,33.30
2019-02-23T13:50:54.459Z,33.30
2019-02-23T13:53:59.047Z,34.40
2019-02-23T13:56:49.947Z,34.10
2019-02-23T14:00:01.187Z,34.30
2019-02-23T14:03:16.306Z,33.80
2019-02-23T14:06:34.536Z,32.70
2019-02-23T14:09:40.731Z,34.00
2019-02-23T14:12:20.622Z,34.90
2019-02-23T14:15:01.533Z,34.10
2019-02-23T14:18:16.072Z,33.20
2019-02-23T14:21:31.352Z,32.40
2019-02-23T14:24:34.698Z,33.10
2019-02-23T14:28:02.682Z,32.40
2019-02-23T14:31:02.372Z,32.20
2019-02-23T14:33:44.643Z,34.50
2019-02-23T14:36:42.801Z,33.60
2019-02-23T14:40:10.828Z,31.50
2019-02-23T14:43:13.052Z,31.00
2019-02-23T14:46:06.550Z,33.40
2019-02-23T14:48:58.599Z,32.60
2019-02-23T14:51:54.960Z,32.10
2019-02-23T14:55:14.175Z,34.00
2019-02-23T14:58:27.418Z,36.80
2019-02-23T15:01:21.608Z,33.50
2019-02-23T15:04:26.724Z,30.40
2019-02-23T15:07:58.126Z,31.10
2019-02-23T15:11:10.011Z,30.80
2019-02-23T15:13:53.402Z,32.90
2019-02-23T15:16:54.672Z,29.90
2019-02-23T15:19:45.963Z,29.30
2019-02-23T15:22:56.955Z,29.60
2019-02-23T15:26:04.511Z,28.50
2019-02-23T15:29:18.807Z,29.00
2019-02-23T15:32:13.495Z,29.50
2019-02-23T15:35:24.875Z,29.50
2019-02-23T15:38:38.640Z,29.00
2019-02-23T15:41:48.967Z,31.90
2019-02-23T15:45:07.542Z,30.10
2019-02-23T15:48:09.327Z,30.10
2019-02-23T15:50:38.667Z,30.10
2019-02-23T15:53:07.853Z,30.70
2019-02-23T15:55:37.323Z,32.00
2019-02-23T15:58:06.852Z,31.40
2019-02-23T16:01:26.828Z,30.50
2019-02-23T16:04:16.297Z,31.40
2019-02-23T16:06:45.546Z,30.70
2019-02-23T16:09:15.524Z,30.90
2019-02-23T16:11:45.439Z,31.10
2019-02-23T16:14:14.906Z,31.70
2019-02-23T16:16:47.270Z,32.60
2019-02-23T16:19:15.604Z,33.20
2019-02-23T16:21:45.211Z,33.30
2019-02-23T16:24:14.778Z,33.60
2019-02-23T16:26:44.636Z,34.00
2019-02-23T16:29:13.803Z,35.30
2019-02-23T16:31:43.249Z,34.70
2019-02-23T16:34:12.747Z,35.00
2019-02-23T16:36:41.871Z,35.40
2019-02-23T16:39:11.644Z,36.40
2019-02-23T16:41:40.832Z,36.60
2019-02-23T16:44:10.400Z,36.90
2019-02-23T16:46:41.960Z,37.80
2019-02-23T16:49:11.198Z,38.70
2019-02-23T16:51:40.679Z,39.30
2019-02-23T16:54:10.651Z,38.50
2019-02-23T16:56:39.856Z,38.20
2019-02-23T16:59:09.814Z,40.10
2019-02-23T17:01:39.756Z,37.70
2019-02-23T17:04:08.891Z,38.40
2019-02-23T17:06:38.323Z,37.90
2019-02-23T17:09:08.143Z,38.50
2019-02-23T17:11:37.659Z,38.70
2019-02-23T17:14:07.095Z,39.10
2019-02-23T17:16:36.750Z,42.30
2019-02-23T17:19:05.924Z,43.50
2019-02-23T17:21:35.584Z,40.80
2019-02-23T17:24:05.012Z,39.90
2019-02-23T17:26:36.792Z,39.50
2019-02-23T17:29:05.529Z,38.80
2019-02-23T17:31:35.023Z,38.70
2019-02-23T17:34:04.199Z,37.40
2019-02-23T17:36:33.373Z,38.10
2019-02-23T17:39:02.864Z,38.10
2019-02-23T17:41:32.335Z,38.40
2019-02-23T17:44:01.832Z,38.70
2019-02-23T17:46:31.009Z,38.70
2019-02-23T17:49:00.747Z,38.30
2019-02-23T17:51:30.255Z,39.80
2019-02-23T17:54:00.043Z,39.10
2019-02-23T17:56:29.451Z,39.60
2019-02-23T17:58:58.924Z,39.20
2019-02-23T18:01:28.699Z,39.60
2019-02-23T18:03:58.213Z,39.70
2019-02-23T18:06:27.600Z,39.50
2019-02-23T18:08:56.780Z,40.00
2019-02-23T18:11:26.208Z,40.60
2019-02-23T18:13:56.448Z,39.50
2019-02-23T18:16:25.851Z,39.70
2019-02-23T18:18:55.307Z,39.90
2019-02-23T18:21:24.447Z,39.80
2019-02-23T18:23:53.887Z,39.70
2019-02-23T18:26:23.322Z,40.30
2019-02-23T18:28:52.837Z,40.10
2019-02-23T18:31:22.331Z,40.00
2019-02-23T18:33:51.771Z,39.60
2019-02-23T18:36:20.935Z,39.90
2019-02-23T18:38:50.387Z,39.10
2019-02-23T18:41:20.345Z,38.90
2019-02-23T18:43:49.854Z,39.00
2019-02-23T18:46:19.383Z,39.40
2019-02-23T18:48:48.512Z,38.90
2019-02-23T18:51:17.650Z,39.30
2019-02-23T18:53:46.975Z,39.10
2019-02-23T18:56:16.111Z,39.40
2019-02-23T18:58:45.544Z,40.10
2019-02-23T19:01:14.971Z,40.70
2019-02-23T19:03:44.580Z,41.20
2019-02-23T19:06:14.032Z,41.10
2019-02-23T19:08:43.291Z,41.20
2019-02-23T19:11:12.427Z,41.30
2019-02-23T19:13:42.024Z,41.80
2019-02-23T19:16:11.844Z,42.10
2019-02-23T19:18:43.116Z,42.30
2019-02-23T19:21:12.544Z,42.60
2019-02-23T19:23:42.040Z,43.10
2019-02-23T19:26:12.060Z,43.00
2019-02-23T19:28:43.329Z,43.20
2019-02-23T19:31:12.751Z,42.50
2019-02-23T19:33:42.571Z,42.90
2019-02-23T19:36:11.720Z,43.40
2019-02-23T19:38:40.986Z,43.20
2019-02-23T19:41:10.399Z,44.30
2019-02-23T19:43:39.693Z,44.20
2019-02-23T19:46:09.455Z,44.50
2019-02-23T19:48:38.750Z,45.20
2019-02-23T19:51:09.485Z,45.30
2019-02-23T19:53:39.736Z,45.70
2019-02-23T19:56:09.159Z,46.00
2019-02-23T19:58:38.777Z,46.30
2019-02-23T20:01:08.195Z,46.90
2019-02-23T20:03:37.471Z,47.20
2019-02-23T20:06:06.888Z,46.40
2019-02-23T20:08:36.500Z,46.80
2019-02-23T20:11:05.730Z,46.80
2019-02-23T20:13:35.432Z,47.10
2019-02-23T20:16:05.380Z,47.70
2019-02-23T20:18:35.571Z,48.00
2019-02-23T20:21:04.721Z,48.00
2019-02-23T20:23:34.075Z,47.80
2019-02-23T20:26:03.644Z,47.60
2019-02-23T20:28:39.128Z,47.40
2019-02-23T20:31:09.170Z,46.90
2019-02-23T20:33:39.131Z,46.70
2019-02-23T20:36:10.525Z,46.80
2019-02-23T20:38:40.264Z,47.10
2019-02-23T20:41:09.700Z,47.30
2019-02-23T20:43:39.524Z,47.60
2019-02-23T20:46:09.087Z,47.70
2019-02-23T20:48:38.444Z,47.80
2019-02-23T20:51:07.948Z,48.00
2019-02-23T20:53:37.764Z,48.40
2019-02-23T20:56:07.000Z,48.50
2019-02-23T20:58:36.848Z,48.60
2019-02-23T21:01:06.150Z,48.60
2019-02-23T21:03:35.803Z,48.50
2019-02-23T21:06:04.975Z,48.50
2019-02-23T21:08:34.841Z,48.30
2019-02-23T21:11:04.234Z,48.50
2019-02-23T21:13:34.183Z,48.60
2019-02-23T21:16:03.947Z,48.80
2019-02-23T21:18:33.448Z,48.80
2019-02-23T21:21:02.729Z,48.90
2019-02-23T21:23:32.428Z,48.90
2019-02-23T21:26:01.659Z,48.50
2019-02-23T21:28:30.804Z,48.10
2019-02-23T21:31:00.111Z,47.90
2019-02-23T21:33:30.132Z,47.90
2019-02-23T21:35:59.473Z,47.30
2019-02-23T21:38:28.708Z,46.90
2019-02-23T21:40:58.008Z,47.50
2019-02-23T21:43:27.158Z,47.90
2019-02-23T21:45:56.436Z,47.90
2019-02-23T21:48:25.591Z,48.00
2019-02-23T21:50:54.811Z,48.10
2019-02-23T21:53:24.247Z,48.20
2019-02-23T21:55:54.277Z,48.40
2019-02-23T21:58:23.805Z,48.60
2019-02-23T22:00:53.065Z,48.80
2019-02-23T22:03:22.512Z,48.60
2019-02-23T22:05:52.617Z,48.50
2019-02-23T22:08:21.836Z,48.80
2019-02-23T22:10:51.317Z,48.80
2019-02-23T22:13:21.084Z,49.00
2019-02-23T22:15:50.753Z,49.00
2019-02-23T22:18:19.972Z,49.10
2019-02-23T22:20:49.496Z,48.80
2019-02-23T22:23:18.725Z,48.80
2019-02-23T22:25:48.248Z,48.80
2019-02-23T22:28:18.012Z,48.60
2019-02-23T22:30:47.521Z,48.40
2019-02-23T22:33:16.945Z,48.00
2019-02-23T22:35:46.272Z,47.80
2019-02-23T22:38:17.084Z,47.90
2019-02-23T22:40:46.884Z,47.90
2019-02-23T22:43:19.151Z,47.70
2019-02-23T22:45:48.871Z,48.40
2019-02-23T22:48:26.656Z,48.50
2019-02-23T22:50:56.496Z,48.50
2019-02-23T22:53:26.191Z,48.40
2019-02-23T22:55:56.998Z,48.40
2019-02-23T22:58:26.467Z,48.60
2019-02-23T23:01:08.171Z,48.70
2019-02-23T23:03:37.980Z,48.90
2019-02-23T23:06:07.175Z,49.00
2019-02-23T23:08:36.822Z,49.00
2019-02-23T23:11:06.119Z,49.20
2019-02-23T23:13:35.560Z,49.10
2019-02-23T23:16:05.583Z,48.90
2019-02-23T23:18:34.852Z,49.10
2019-02-23T23:21:04.620Z,49.10
2019-02-23T23:23:35.463Z,49.10
2019-02-23T23:26:05.023Z,49.10
2019-02-23T23:28:34.488Z,49.00
2019-02-23T23:31:03.774Z,48.30
2019-02-23T23:33:32.951Z,47.60
2019-02-23T23:36:02.496Z,47.90
2019-02-23T23:38:32.140Z,48.00
2019-02-23T23:41:01.343Z,48.20
2019-02-23T23:43:30.812Z,48.40
2019-02-23T23:46:00.420Z,48.40
2019-02-23T23:48:29.635Z,48.50
2019-02-23T23:50:59.305Z,48.50
2019-02-23T23:53:29.424Z,48.10
2019-02-23T23:55:59.240Z,48.10
2019-02-23T23:58:28.868Z,48.10
